Time;durP1;ratioP1;P1;durP2;ratioP2;P2;SDS_P1;SDS_P2;PMS_P1;PMS_P2;Temp;Humidity;BMP_temperature;BMP_pressure;BME280_temperature;BME280_humidity;BME280_pressure;Samples;Min_cycle;Max_cycle;Signal;HPM_P1;HPM_P2
2022/01/02 00:02:56;;;;;;;0.50;0.50;;;20.60;51.80;;;;;;6220206;28;20608;-72
2022/01/02 00:06:01;;;;;;;1.17;0.50;;;20.60;51.80;;;;;;6214293;28;20035;-73
2022/01/02 00:09:05;;;;;;;1.00;0.60;;;20.60;52.50;;;;;;6196306;28;20109;-72
2022/01/02 00:12:10;;;;;;;0.93;0.70;;;20.60;52.50;;;;;;6199201;28;20033;-72
2022/01/02 00:15:11;;;;;;;0.40;0.40;;;20.60;51.80;;;;;;6220288;28;20025;-73
2022/01/02 00:18:15;;;;;;;0.80;0.57;;;20.60;51.80;;;;;;6220425;28;20033;-72
2022/01/02 00:21:18;;;;;;;0.70;0.60;;;20.60;51.80;;;;;;6219997;28;20022;-72
2022/01/02 00:24:20;;;;;;;1.08;0.70;;;20.60;51.80;;;;;;6217278;28;20477;-72
2022/01/02 00:27:22;;;;;;;0.68;0.60;;;20.60;51.80;;;;;;6220115;28;20029;-72
2022/01/02 00:30:24;;;;;;;0.82;0.65;;;20.60;51.80;;;;;;6218120;28;20129;-73
2022/01/02 00:33:25;;;;;;;0.80;0.70;;;20.60;51.80;;;;;;6195752;28;20054;-72
2022/01/02 00:36:26;;;;;;;1.48;0.80;;;20.60;51.80;;;;;;6206598;28;20040;-72
2022/01/02 00:39:26;;;;;;;0.85;0.65;;;20.60;51.80;;;;;;6220032;28;20449;-72
2022/01/02 00:42:34;;;;;;;0.47;0.40;;;20.60;51.80;;;;;;6219067;28;20068;-72
2022/01/02 00:45:44;;;;;;;1.02;0.60;;;20.60;51.80;;;;;;6219063;28;20014;-72
2022/01/02 00:48:47;;;;;;;0.60;0.40;;;20.60;51.80;;;;;;6219649;28;20061;-72
2022/01/02 00:52:11;;;;;;;1.30;0.60;;;20.50;51.70;;;;;;6219669;28;20018;-72
2022/01/02 00:55:16;;;;;;;0.73;0.40;;;20.60;51.80;;;;;;6218783;28;20394;-72
2022/01/02 00:58:17;;;;;;;0.73;0.50;;;20.60;51.80;;;;;;6219525;28;20029;-73
2022/01/02 01:01:23;;;;;;;1.08;0.60;;;20.60;51.80;;;;;;6219376;28;20480;-72
2022/01/02 01:04:29;;;;;;;1.02;0.52;;;20.60;51.80;;;;;;6219272;28;20112;-72
2022/01/02 01:07:32;;;;;;;0.82;0.52;;;20.60;51.80;;;;;;6219206;28;20026;-72
2022/01/02 01:10:38;;;;;;;1.10;0.65;;;20.60;51.80;;;;;;6219317;28;20026;-72
2022/01/02 01:13:39;;;;;;;1.27;0.65;;;20.60;51.80;;;;;;6214567;28;20160;-72
2022/01/02 01:16:40;;;;;;;1.52;0.70;;;20.60;51.80;;;;;;6218917;28;20042;-72
2022/01/02 01:19:41;;;;;;;0.60;0.60;;;20.50;51.70;;;;;;6216856;28;20036;-72
2022/01/02 01:22:42;;;;;;;1.25;0.60;;;20.60;51.80;;;;;;6213088;28;20048;-72
2022/01/02 01:25:46;;;;;;;0.63;0.50;;;20.60;51.80;;;;;;6218665;28;20042;-72
2022/01/02 01:28:47;;;;;;;0.82;0.50;;;20.60;51.90;;;;;;6219231;28;20021;-72
2022/01/02 01:31:47;;;;;;;0.98;0.57;;;20.60;51.80;;;;;;6205410;28;20126;-72
2022/01/02 01:34:48;;;;;;;0.88;0.57;;;20.60;51.80;;;;;;6195392;28;20037;-72
2022/01/02 01:37:49;;;;;;;0.60;0.30;;;20.50;51.70;;;;;;6218844;28;20037;-72
2022/01/02 01:41:03;;;;;;;0.77;0.60;;;20.60;51.80;;;;;;6218787;28;20105;-73
2022/01/02 01:44:38;;;;;;;0.93;0.50;;;20.60;51.80;;;;;;6219310;28;20043;-73
2022/01/02 01:47:26;;;;;;;0.60;0.50;;;20.60;51.80;;;;;;6217719;28;20403;-72
2022/01/02 01:50:30;;;;;;;0.60;0.50;;;20.60;51.80;;;;;;6218635;28;20025;-72
2022/01/02 01:53:30;;;;;;;0.80;0.63;;;20.60;51.80;;;;;;6216785;28;20057;-72
2022/01/02 01:56:31;;;;;;;0.70;0.50;;;20.60;51.80;;;;;;6211393;28;20044;-72
2022/01/02 01:59:32;;;;;;;0.63;0.50;;;20.60;51.80;;;;;;6223562;28;20461;-72
2022/01/02 02:02:33;;;;;;;0.65;0.50;;;20.60;51.80;;;;;;6223941;28;20058;-72
2022/01/02 02:05:33;;;;;;;1.17;0.50;;;20.60;51.70;;;;;;6217162;28;20038;-72
2022/01/02 02:08:36;;;;;;;0.75;0.50;;;20.60;51.80;;;;;;6199176;28;20027;-72
2022/01/02 02:11:38;;;;;;;0.57;0.50;;;20.60;51.80;;;;;;6204501;28;20033;-72
2022/01/02 02:14:39;;;;;;;1.65;0.50;;;20.60;51.80;;;;;;6223146;28;20014;-72
2022/01/02 02:17:42;;;;;;;0.70;0.52;;;20.60;51.70;;;;;;6217026;28;20481;-72
2022/01/02 02:20:43;;;;;;;1.00;0.60;;;20.60;51.70;;;;;;6223527;28;20034;-73
2022/01/02 02:23:44;;;;;;;0.63;0.47;;;20.60;51.80;;;;;;6204264;28;20030;-72
2022/01/02 02:26:47;;;;;;;1.70;0.80;;;20.60;51.70;;;;;;6203035;28;20072;-72
2022/01/02 02:29:47;;;;;;;0.52;0.50;;;20.60;51.70;;;;;;6222368;28;20033;-72
2022/01/02 02:32:48;;;;;;;0.75;0.60;;;20.50;51.60;;;;;;6198520;28;20026;-72
2022/01/02 02:35:49;;;;;;;0.50;0.40;;;20.60;51.70;;;;;;6204456;28;20099;-72
2022/01/02 02:38:50;;;;;;;0.77;0.40;;;20.60;51.70;;;;;;6222561;28;20029;-72
2022/01/02 02:41:50;;;;;;;0.70;0.50;;;20.60;51.70;;;;;;6219206;28;20057;-72
2022/01/02 02:44:58;;;;;;;1.27;0.70;;;20.60;51.70;;;;;;6220674;28;20053;-72
2022/01/02 02:54:54;;;;;;;0.55;0.50;;;20.60;51.70;;;;;;6211754;28;20397;-72
2022/01/02 02:57:58;;;;;;;1.27;0.60;;;20.60;51.70;;;;;;6221211;28;20030;-72
2022/01/02 03:01:00;;;;;;;0.68;0.50;;;20.60;51.70;;;;;;6221877;28;20112;-72
2022/01/02 03:04:00;;;;;;;0.40;0.40;;;20.60;51.70;;;;;;6220908;28;20049;-72
2022/01/02 03:07:01;;;;;;;1.00;0.50;;;20.60;51.70;;;;;;6207281;28;20023;-72
2022/01/02 03:10:02;;;;;;;0.80;0.50;;;20.60;51.70;;;;;;6193146;28;20045;-72
2022/01/02 03:13:03;;;;;;;0.95;0.68;;;20.50;51.60;;;;;;6217045;28;20022;-72
2022/01/02 03:16:03;;;;;;;0.82;0.60;;;20.60;51.70;;;;;;6216696;28;20051;-73
2022/01/02 03:19:05;;;;;;;0.55;0.47;;;20.60;51.70;;;;;;6221665;28;20030;-72
2022/01/02 03:22:08;;;;;;;0.60;0.50;;;20.60;51.70;;;;;;6209986;28;20050;-72
2022/01/02 03:25:09;;;;;;;0.60;0.50;;;20.60;51.70;;;;;;6221500;28;20532;-72
2022/01/02 03:28:10;;;;;;;0.55;0.50;;;20.60;51.70;;;;;;6218530;28;20036;-72
2022/01/02 03:31:10;;;;;;;0.50;0.35;;;20.60;51.70;;;;;;6213014;28;20469;-73
2022/01/02 03:34:11;;;;;;;0.30;0.30;;;20.60;51.70;;;;;;6196791;28;20026;-72
2022/01/02 03:37:11;;;;;;;0.40;0.40;;;20.60;51.70;;;;;;6217580;28;20046;-72
2022/01/02 03:40:12;;;;;;;0.65;0.40;;;20.60;51.70;;;;;;6217949;28;20324;-72
2022/01/02 03:43:13;;;;;;;0.60;0.57;;;20.60;51.70;;;;;;6221333;28;20044;-73
2022/01/02 03:46:13;;;;;;;1.50;0.70;;;20.60;51.70;;;;;;6220690;28;20296;-72
2022/01/02 03:49:14;;;;;;;0.50;0.50;;;20.60;51.70;;;;;;6221467;28;20044;-72
2022/01/02 03:52:15;;;;;;;0.40;0.40;;;20.60;51.60;;;;;;6220559;28;20520;-72
2022/01/02 03:55:15;;;;;;;0.75;0.40;;;20.60;51.70;;;;;;6203628;28;20561;-72
2022/01/02 03:58:16;;;;;;;1.98;0.43;;;20.50;51.50;;;;;;6220814;28;20101;-72
2022/01/02 04:01:16;;;;;;;0.57;0.50;;;20.60;51.70;;;;;;6220615;28;20030;-72
2022/01/02 04:04:17;;;;;;;0.80;0.55;;;20.50;51.60;;;;;;6220647;28;20639;-72
2022/01/02 04:07:18;;;;;;;0.55;0.55;;;20.50;51.50;;;;;;6220661;28;20045;-72
2022/01/02 04:10:18;;;;;;;0.40;0.40;;;20.60;51.70;;;;;;6220550;28;20026;-72
2022/01/02 04:13:19;;;;;;;0.47;0.45;;;20.60;51.60;;;;;;6220548;28;20025;-72
2022/01/02 04:16:20;;;;;;;0.88;0.60;;;20.50;51.50;;;;;;6214181;28;20100;-72
2022/01/02 04:19:20;;;;;;;0.60;0.50;;;20.50;51.50;;;;;;6220471;28;20384;-72
2022/01/02 04:22:21;;;;;;;0.93;0.63;;;20.60;51.60;;;;;;6219818;28;20141;-72
2022/01/02 04:25:21;;;;;;;0.50;0.35;;;20.50;51.50;;;;;;6220149;28;20041;-74
2022/01/02 04:28:22;;;;;;;0.50;0.50;;;20.50;51.50;;;;;;6219846;28;20473;-72
2022/01/02 04:31:23;;;;;;;0.68;0.40;;;20.50;51.50;;;;;;6209984;28;20134;-72
2022/01/02 04:34:23;;;;;;;0.55;0.50;;;20.50;51.50;;;;;;6195502;28;20039;-72
2022/01/02 04:37:24;;;;;;;0.40;0.40;;;20.50;51.50;;;;;;6209182;28;20038;-72
2022/01/02 04:40:24;;;;;;;0.85;0.50;;;20.50;51.50;;;;;;6200685;28;20030;-74
2022/01/02 04:43:25;;;;;;;0.57;0.50;;;20.50;51.50;;;;;;6219695;28;20491;-72
2022/01/02 04:46:25;;;;;;;0.40;0.40;;;20.50;51.50;;;;;;6217851;28;20026;-72
2022/01/02 04:49:26;;;;;;;0.60;0.50;;;20.50;51.50;;;;;;6202589;28;20110;-72
2022/01/02 04:52:26;;;;;;;0.47;0.40;;;20.50;51.60;;;;;;6219313;28;20017;-72
2022/01/02 04:55:27;;;;;;;1.27;0.40;;;20.50;51.50;;;;;;6216436;28;20441;-74
2022/01/02 04:58:28;;;;;;;0.30;0.30;;;20.50;51.50;;;;;;6219574;28;20061;-72
2022/01/02 05:01:28;;;;;;;0.65;0.43;;;20.50;51.50;;;;;;6198762;28;20057;-72
2022/01/02 05:04:29;;;;;;;0.40;0.40;;;20.50;51.60;;;;;;6219292;28;20134;-72
2022/01/02 05:07:29;;;;;;;1.67;0.47;;;20.50;51.50;;;;;;6219372;28;20385;-72
2022/01/02 05:10:30;;;;;;;0.85;0.50;;;20.50;51.50;;;;;;6219537;28;20169;-72
2022/01/02 05:13:30;;;;;;;1.05;0.50;;;20.50;51.50;;;;;;6216529;28;20026;-72
2022/01/02 05:16:31;;;;;;;0.47;0.47;;;20.50;51.50;;;;;;6218683;28;20038;-73
2022/01/02 05:19:32;;;;;;;0.55;0.43;;;20.50;51.50;;;;;;6218686;28;20040;-72
2022/01/02 05:22:32;;;;;;;0.98;0.60;;;20.50;51.50;;;;;;6211567;28;20032;-72
2022/01/02 05:25:33;;;;;;;1.10;0.47;;;20.50;51.50;;;;;;6219080;28;20030;-72
2022/01/02 05:28:33;;;;;;;0.57;0.43;;;20.50;51.50;;;;;;6218737;28;20037;-72
2022/01/02 05:31:34;;;;;;;0.75;0.50;;;20.50;52.20;;;;;;6207599;28;20436;-72
2022/01/02 05:34:35;;;;;;;0.63;0.50;;;20.50;51.50;;;;;;6194822;28;20073;-72
2022/01/02 05:37:35;;;;;;;0.50;0.50;;;20.50;51.50;;;;;;6218194;28;20485;-72
2022/01/02 05:40:36;;;;;;;0.40;0.40;;;20.50;51.50;;;;;;6218897;28;20026;-72
2022/01/02 05:43:36;;;;;;;0.50;0.50;;;20.50;51.50;;;;;;6219108;28;20396;-72
2022/01/02 05:46:37;;;;;;;0.43;0.38;;;20.50;51.50;;;;;;6218478;28;20069;-72
2022/01/02 05:49:38;;;;;;;0.52;0.40;;;20.50;51.50;;;;;;6218974;28;20063;-72
2022/01/02 05:52:38;;;;;;;0.70;0.43;;;20.50;51.50;;;;;;6218621;28;20487;-72
2022/01/02 05:55:39;;;;;;;1.10;0.40;;;20.50;51.50;;;;;;6201148;28;20053;-72
2022/01/02 05:58:39;;;;;;;0.30;0.30;;;20.50;51.50;;;;;;6218811;28;20492;-72
2022/01/02 06:01:40;;;;;;;0.55;0.43;;;20.50;51.50;;;;;;6202074;28;20058;-73
2022/01/02 06:04:40;;;;;;;0.40;0.40;;;20.50;51.50;;;;;;6170272;28;20470;-72
2022/01/02 06:07:41;;;;;;;1.15;0.63;;;20.50;51.50;;;;;;6190198;28;20477;-72
2022/01/02 06:10:42;;;;;;;0.40;0.40;;;20.50;51.50;;;;;;6194287;28;20030;-72
2022/01/02 06:13:42;;;;;;;0.50;0.40;;;20.50;51.50;;;;;;6199927;28;20121;-74
2022/01/02 06:16:43;;;;;;;0.40;0.40;;;20.50;51.50;;;;;;6218216;28;20091;-72
2022/01/02 06:19:43;;;;;;;1.48;0.60;;;20.50;51.50;;;;;;6218511;28;20041;-73
2022/01/02 06:22:44;;;;;;;0.40;0.40;;;20.50;51.50;;;;;;6218849;28;20034;-72
2022/01/02 06:25:45;;;;;;;0.30;0.30;;;20.50;51.50;;;;;;6218408;28;20026;-72
2022/01/02 06:28:46;;;;;;;0.63;0.40;;;20.50;51.50;;;;;;6215048;28;20040;-72
2022/01/02 06:31:46;;;;;;;0.30;0.30;;;20.50;51.50;;;;;;6204651;28;20030;-72
2022/01/02 06:34:47;;;;;;;0.38;0.38;;;20.50;51.50;;;;;;6177649;28;20026;-72
2022/01/02 06:37:47;;;;;;;0.60;0.50;;;20.50;51.50;;;;;;6218800;28;20058;-72
2022/01/02 06:40:49;;;;;;;0.30;0.30;;;20.50;51.50;;;;;;6221347;28;20042;-72
2022/01/02 06:43:52;;;;;;;0.40;0.40;;;20.50;51.50;;;;;;6222825;28;20025;-72
2022/01/02 06:46:52;;;;;;;0.50;0.40;;;20.50;51.50;;;;;;6216783;28;20103;-72
2022/01/02 06:49:53;;;;;;;0.38;0.30;;;20.50;51.50;;;;;;6222518;28;20018;-72
2022/01/02 06:52:53;;;;;;;0.60;0.40;;;20.50;51.50;;;;;;6219201;28;20026;-72
2022/01/02 06:55:54;;;;;;;0.35;0.35;;;20.50;51.50;;;;;;6222077;28;20108;-73
2022/01/02 06:58:54;;;;;;;1.00;0.52;;;20.50;51.50;;;;;;6222391;28;20018;-72
2022/01/02 07:01:55;;;;;;;0.50;0.40;;;20.50;51.50;;;;;;6221715;28;20053;-72
2022/01/02 07:04:55;;;;;;;0.40;0.40;;;20.50;51.50;;;;;;6222297;28;20152;-72
2022/01/02 07:07:56;;;;;;;0.77;0.50;;;20.50;51.50;;;;;;6221698;28;20504;-73
2022/01/02 07:10:56;;;;;;;0.30;0.30;;;20.50;51.50;;;;;;6221950;28;20286;-72
2022/01/02 07:13:57;;;;;;;0.43;0.30;;;20.50;51.50;;;;;;6217051;28;20026;-72
2022/01/02 07:16:59;;;;;;;0.60;0.50;;;20.50;51.50;;;;;;6221657;28;20033;-72
2022/01/02 07:19:59;;;;;;;0.50;0.30;;;20.50;51.50;;;;;;6217175;28;20040;-72
2022/01/02 07:23:00;;;;;;;0.30;0.30;;;20.50;51.50;;;;;;6217833;28;20025;-72
2022/01/02 07:26:00;;;;;;;0.38;0.35;;;20.50;51.50;;;;;;6215694;28;20099;-72
2022/01/02 07:29:01;;;;;;;0.40;0.40;;;20.50;51.50;;;;;;6221334;28;20022;-72
2022/01/02 07:32:01;;;;;;;0.47;0.43;;;20.50;51.40;;;;;;6205662;28;20034;-72
2022/01/02 07:35:04;;;;;;;0.88;0.50;;;20.50;51.40;;;;;;6199881;28;20026;-72
2022/01/02 07:38:04;;;;;;;0.80;0.50;;;20.50;51.40;;;;;;6218403;28;20030;-72
2022/01/02 07:41:05;;;;;;;0.50;0.40;;;20.50;51.50;;;;;;6217725;28;20022;-72
2022/01/02 07:44:05;;;;;;;0.30;0.30;;;20.50;51.50;;;;;;6221038;28;20060;-72
2022/01/02 07:47:07;;;;;;;0.50;0.40;;;20.50;51.50;;;;;;6220933;28;20069;-72
2022/01/02 07:50:08;;;;;;;0.30;0.30;;;20.50;51.40;;;;;;6220486;28;20022;-72
2022/01/02 07:53:08;;;;;;;0.30;0.30;;;20.50;51.40;;;;;;6219767;28;20112;-72
2022/01/02 07:56:10;;;;;;;0.75;0.40;;;20.50;51.50;;;;;;6205490;28;20099;-72
2022/01/02 07:59:12;;;;;;;0.40;0.32;;;20.50;51.40;;;;;;6220844;28;20053;-72
2022/01/02 08:02:12;;;;;;;0.35;0.35;;;20.50;51.40;;;;;;6220391;28;20214;-72
2022/01/02 08:05:14;;;;;;;0.40;0.40;;;20.50;51.40;;;;;;6217280;28;20038;-72
2022/01/02 08:08:14;;;;;;;0.22;0.22;;;20.50;51.50;;;;;;6195905;28;20030;-72
2022/01/02 08:11:16;;;;;;;0.30;0.30;;;20.50;51.40;;;;;;6198435;28;20503;-72
2022/01/02 08:14:17;;;;;;;0.40;0.32;;;20.50;51.50;;;;;;6220317;28;20487;-73
2022/01/02 08:17:18;;;;;;;0.52;0.40;;;20.50;51.40;;;;;;6220520;28;20025;-72
2022/01/02 08:20:19;;;;;;;1.00;0.57;;;20.50;51.40;;;;;;6220434;28;20652;-72
2022/01/02 08:23:19;;;;;;;0.38;0.30;;;20.50;51.40;;;;;;6220026;28;20029;-73
2022/01/02 08:26:20;;;;;;;0.30;0.30;;;20.50;51.40;;;;;;6220089;28;20026;-72
2022/01/02 08:29:21;;;;;;;0.30;0.30;;;20.50;51.40;;;;;;6220014;28;20026;-72
2022/01/02 08:32:21;;;;;;;0.47;0.30;;;20.50;51.40;;;;;;6201820;28;20022;-72
2022/01/02 08:35:22;;;;;;;0.40;0.40;;;20.50;51.40;;;;;;6200818;28;20472;-72
2022/01/02 08:38:23;;;;;;;0.55;0.40;;;20.50;51.40;;;;;;6202663;28;20473;-72
2022/01/02 08:41:23;;;;;;;0.30;0.30;;;20.50;51.40;;;;;;6219531;28;20037;-72
2022/01/02 08:44:24;;;;;;;0.30;0.30;;;20.50;51.40;;;;;;6219912;28;20018;-72
2022/01/02 08:47:24;;;;;;;0.30;0.30;;;20.50;51.40;;;;;;6217917;28;20032;-72
2022/01/02 08:50:25;;;;;;;0.38;0.38;;;20.50;51.40;;;;;;6219835;28;20026;-73
2022/01/02 08:53:27;;;;;;;0.30;0.30;;;20.50;51.40;;;;;;6220188;28;20034;-72
2022/01/02 08:56:27;;;;;;;0.20;0.20;;;20.50;51.40;;;;;;6219373;28;20570;-72
2022/01/02 08:59:28;;;;;;;0.38;0.30;;;20.50;51.80;;;;;;6219584;28;20038;-73
2022/01/02 09:02:28;;;;;;;0.82;0.50;;;20.50;51.40;;;;;;6218470;28;20129;-72
2022/01/02 09:05:29;;;;;;;0.38;0.30;;;20.50;51.40;;;;;;6219001;28;20022;-72
2022/01/02 09:08:30;;;;;;;0.85;0.40;;;20.50;51.40;;;;;;6219772;28;20030;-72
2022/01/02 09:11:30;;;;;;;0.30;0.30;;;20.50;51.40;;;;;;6216096;28;20026;-72
2022/01/02 09:14:31;;;;;;;0.50;0.50;;;20.50;51.40;;;;;;6219340;28;20461;-72
2022/01/02 09:17:32;;;;;;;0.30;0.30;;;20.50;52.10;;;;;;6218819;28;20508;-72
2022/01/02 09:20:33;;;;;;;0.40;0.30;;;20.50;51.40;;;;;;6210695;28;20035;-72
2022/01/02 09:23:33;;;;;;;0.30;0.30;;;20.50;51.40;;;;;;6218925;28;20129;-72
2022/01/02 09:26:34;;;;;;;0.80;0.50;;;20.50;51.40;;;;;;6218972;28;20096;-72
2022/01/02 09:29:35;;;;;;;0.40;0.40;;;20.50;51.40;;;;;;6218516;28;20045;-72
2022/01/02 09:32:36;;;;;;;0.35;0.30;;;20.50;51.40;;;;;;6199116;28;20440;-72
2022/01/02 09:35:38;;;;;;;0.73;0.30;;;20.50;51.40;;;;;;6201532;28;20026;-72
2022/01/02 09:38:38;;;;;;;0.60;0.40;;;20.50;51.40;;;;;;6191595;28;20465;-72
2022/01/02 09:41:40;;;;;;;0.80;0.40;;;20.50;51.40;;;;;;6207345;28;20030;-72
2022/01/02 09:44:41;;;;;;;5.13;0.30;;;20.50;51.40;;;;;;6194420;28;20113;-73
2022/01/02 09:47:43;;;;;;;4.43;0.57;;;20.60;51.50;;;;;;6216322;28;20071;-72
2022/01/02 09:50:47;;;;;;;2.20;0.98;;;20.50;51.30;;;;;;6218694;28;20026;-73
2022/01/02 09:53:48;;;;;;;10.82;1.25;;;20.50;50.80;;;;;;6214333;28;20537;-73
2022/01/02 09:56:48;;;;;;;9.05;0.98;;;20.50;50.80;;;;;;6195385;28;20440;-72
2022/01/02 09:59:49;;;;;;;20.38;1.73;;;20.50;51.10;;;;;;6209463;28;20141;-73
2022/01/02 10:02:57;;;;;;;4.13;1.83;;;20.50;50.70;;;;;;6218213;28;20450;-72
2022/01/02 10:05:59;;;;;;;4.35;1.17;;;20.50;50.60;;;;;;6193336;28;20405;-73
2022/01/02 10:09:00;;;;;;;4.20;1.63;;;20.50;50.50;;;;;;6197698;28;20084;-73
2022/01/02 10:12:20;;;;;;;5.97;1.20;;;20.50;50.40;;;;;;6217886;28;20022;-74
2022/01/02 10:15:23;;;;;;;7.38;1.77;;;20.50;50.60;;;;;;6221864;28;20048;-72
2022/01/02 10:18:25;;;;;;;8.48;1.50;;;20.50;50.50;;;;;;6222316;28;20061;-73
2022/01/02 10:21:38;;;;;;;9.27;1.95;;;20.50;50.40;;;;;;6216297;28;20034;-72
2022/01/02 10:24:47;;;;;;;3.75;1.48;;;20.50;50.40;;;;;;6222405;28;20385;-72
2022/01/02 10:27:48;;;;;;;9.15;1.70;;;20.50;50.20;;;;;;6206778;28;20026;-73
2022/01/02 10:30:50;;;;;;;6.82;1.83;;;20.50;50.40;;;;;;6208656;28;20069;-73
2022/01/02 10:33:59;;;;;;;8.35;1.80;;;20.50;50.40;;;;;;6198172;28;20448;-72
2022/01/02 10:36:59;;;;;;;8.20;2.00;;;20.50;50.30;;;;;;6222720;28;20099;-72
2022/01/02 10:40:00;;;;;;;9.02;2.17;;;20.50;50.20;;;;;;6222134;28;20026;-72
2022/01/02 10:43:06;;;;;;;9.43;2.85;;;20.50;50.40;;;;;;6221934;28;20034;-72
2022/01/02 10:46:08;;;;;;;7.65;1.90;;;20.50;50.30;;;;;;6223040;28;20473;-73
2022/01/02 10:49:08;;;;;;;5.53;1.80;;;20.50;50.20;;;;;;6222564;28;20049;-73
2022/01/02 10:52:23;;;;;;;10.70;1.77;;;20.50;50.40;;;;;;6201003;28;20393;-73
2022/01/02 10:55:26;;;;;;;20.20;2.50;;;20.50;50.70;;;;;;6218706;28;20042;-72
2022/01/02 10:58:27;;;;;;;7.40;1.65;;;20.50;51.40;;;;;;6221120;28;20428;-73
2022/01/02 11:01:28;;;;;;;12.05;2.22;;;20.50;50.60;;;;;;6139034;28;20058;-72
2022/01/02 11:04:30;;;;;;;14.88;2.15;;;20.50;50.70;;;;;;6157671;28;20046;-73
2022/01/02 11:08:00;;;;;;;6.55;2.42;;;20.40;50.60;;;;;;6166589;28;20023;-73
2022/01/02 11:11:03;;;;;;;6.40;1.90;;;20.50;50.60;;;;;;6161056;28;20117;-72
2022/01/02 11:14:03;;;;;;;6.05;1.85;;;20.50;50.60;;;;;;6143532;28;20035;-72
2022/01/02 11:17:06;;;;;;;5.53;1.75;;;20.50;50.60;;;;;;6165528;28;20071;-72
2022/01/02 11:20:09;;;;;;;6.22;1.70;;;20.50;50.70;;;;;;6156551;28;20066;-72
2022/01/02 11:23:23;;;;;;;5.22;1.60;;;20.50;50.70;;;;;;6153591;28;20193;-73
2022/01/02 11:26:39;;;;;;;3.42;1.58;;;20.50;50.80;;;;;;6151288;28;20061;-72
2022/01/02 11:29:40;;;;;;;4.75;1.80;;;20.50;50.80;;;;;;6159771;28;20037;-72
2022/01/02 11:32:40;;;;;;;3.80;1.80;;;20.50;50.80;;;;;;6156297;28;20051;-72
2022/01/02 11:35:43;;;;;;;4.18;1.60;;;20.50;50.90;;;;;;6182948;28;20046;-73
2022/01/02 11:38:44;;;;;;;4.65;1.20;;;20.50;50.80;;;;;;6172822;28;20027;-72
2022/01/02 11:41:50;;;;;;;4.05;1.60;;;20.50;50.80;;;;;;6191188;28;20501;-72
2022/01/02 11:44:51;;;;;;;5.13;1.60;;;20.50;50.80;;;;;;6174292;28;20367;-72
2022/01/02 11:47:51;;;;;;;2.47;1.30;;;20.50;50.90;;;;;;6194349;28;20030;-73
2022/01/02 11:50:52;;;;;;;2.47;1.30;;;20.50;50.90;;;;;;6194989;28;20395;-72
2022/01/02 11:53:53;;;;;;;3.78;1.45;;;20.50;50.80;;;;;;6187603;28;20034;-72
2022/01/02 11:57:26;;;;;;;3.92;1.15;;;20.60;50.90;;;;;;6189182;28;20109;-72
2022/01/02 12:00:44;;;;;;;4.85;1.48;;;20.50;50.90;;;;;;6194862;28;20026;-73
2022/01/02 12:03:46;;;;;;;3.40;1.35;;;20.50;50.90;;;;;;6216060;28;20516;-72
2022/01/02 12:06:52;;;;;;;4.32;1.30;;;20.50;50.90;;;;;;6197060;28;20053;-73
2022/01/02 12:09:52;;;;;;;2.40;1.13;;;20.50;50.90;;;;;;6195422;28;20030;-73
2022/01/02 12:13:24;;;;;;;2.00;1.10;;;20.60;51.00;;;;;;6210293;28;20041;-73
2022/01/02 12:16:39;;;;;;;2.85;1.25;;;20.50;50.90;;;;;;6199059;28;20122;-72
2022/01/02 12:20:04;;;;;;;3.22;1.50;;;20.60;51.00;;;;;;6210836;28;20408;-73
2022/01/02 12:23:04;;;;;;;4.35;1.05;;;20.50;51.00;;;;;;6214528;28;20515;-72
2022/01/02 12:26:05;;;;;;;1.00;0.82;;;20.60;51.00;;;;;;6200904;28;20026;-72
2022/01/02 12:29:12;;;;;;;2.63;1.30;;;20.50;51.00;;;;;;6215267;28;20392;-72
2022/01/02 12:32:15;;;;;;;2.30;1.25;;;20.60;51.10;;;;;;6197194;28;20084;-72
2022/01/02 12:35:16;;;;;;;3.20;1.08;;;20.60;51.10;;;;;;6196237;28;20044;-74
2022/01/02 12:38:17;;;;;;;1.73;1.02;;;20.50;51.00;;;;;;6214054;28;20034;-72
2022/01/02 12:41:19;;;;;;;1.42;0.93;;;20.60;51.10;;;;;;6211195;28;20248;-73
2022/01/02 12:44:28;;;;;;;1.98;0.90;;;20.60;51.10;;;;;;6197496;28;20030;-73
2022/01/02 12:47:28;;;;;;;2.03;0.98;;;20.60;51.20;;;;;;6196276;28;20501;-73
2022/01/02 12:50:31;;;;;;;2.33;0.80;;;20.60;51.20;;;;;;6198327;28;20025;-72
2022/01/02 12:53:31;;;;;;;3.65;0.90;;;20.60;51.10;;;;;;6208687;28;20109;-72
2022/01/02 12:56:47;;;;;;;0.90;0.60;;;20.60;51.20;;;;;;6204613;28;20056;-72
2022/01/02 12:59:48;;;;;;;;;;;20.60;51.20;;;;;;6202011;28;20049;-72
2022/01/02 13:02:52;;;;;;;1.10;0.70;;;20.60;51.20;;;;;;6197147;28;20021;-72
2022/01/02 13:05:52;;;;;;;1.52;0.93;;;20.60;51.20;;;;;;6198783;28;20492;-72
2022/01/02 13:08:56;;;;;;;1.75;0.80;;;20.60;51.30;;;;;;6215960;28;20069;-72
2022/01/02 13:11:58;;;;;;;2.03;1.05;;;20.50;51.20;;;;;;6205352;28;20496;-73
2022/01/02 13:15:09;;;;;;;2.90;1.17;;;20.60;51.30;;;;;;6189043;28;20034;-72
2022/01/02 13:18:10;;;;;;;2.50;1.10;;;20.50;51.20;;;;;;6215853;28;20026;-72
2022/01/02 13:21:14;;;;;;;1.63;0.80;;;20.50;51.20;;;;;;6195348;28;20029;-72
2022/01/02 13:24:41;;;;;;;2.75;1.10;;;20.60;51.30;;;;;;6192282;28;20027;-72
2022/01/02 13:28:08;;;;;;;2.15;1.00;;;20.50;51.20;;;;;;6197745;28;20029;-73
2022/01/02 13:31:08;;;;;;;1.25;0.70;;;20.50;51.30;;;;;;6204607;28;20371;-73
2022/01/02 13:34:21;;;;;;;1.05;0.70;;;20.60;51.40;;;;;;6192233;28;20038;-72
2022/01/02 13:37:31;;;;;;;2.65;0.90;;;20.60;51.30;;;;;;6214491;28;20544;-72
2022/01/02 13:40:35;;;;;;;1.35;0.70;;;20.50;51.20;;;;;;6207442;28;20026;-72
2022/01/02 13:43:35;;;;;;;2.53;0.63;;;20.60;51.40;;;;;;6208928;28;20499;-73
2022/01/02 13:46:52;;;;;;;2.08;0.80;;;20.60;51.40;;;;;;6198174;28;20411;-72
2022/01/02 13:49:56;;;;;;;3.83;0.63;;;20.50;51.20;;;;;;6214476;28;20026;-73
2022/01/02 13:53:03;;;;;;;1.40;0.70;;;20.60;51.30;;;;;;6176352;28;20034;-72
2022/01/02 13:56:03;;;;;;;1.25;0.85;;;20.50;51.20;;;;;;6206391;28;20409;-72
2022/01/02 13:59:04;;;;;;;1.23;0.85;;;20.50;51.20;;;;;;6211826;28;20134;-73
2022/01/02 14:02:05;;;;;;;1.60;0.85;;;20.60;51.40;;;;;;6214292;28;20088;-73
2022/01/02 14:05:05;;;;;;;1.13;0.70;;;20.60;51.30;;;;;;6213204;28;20057;-72
2022/01/02 14:08:19;;;;;;;2.05;1.02;;;20.60;51.30;;;;;;6204032;28;20550;-73
2022/01/02 14:11:30;;;;;;;1.77;0.90;;;20.60;51.40;;;;;;6201735;28;20026;-72
2022/01/02 14:14:47;;;;;;;1.55;0.90;;;20.60;51.30;;;;;;6216472;28;20035;-73
2022/01/02 14:17:49;;;;;;;1.73;1.02;;;20.60;51.30;;;;;;6209897;28;20030;-73
2022/01/02 14:20:51;;;;;;;2.05;0.98;;;20.60;51.30;;;;;;6206158;28;20061;-74
2022/01/02 14:23:52;;;;;;;0.77;0.60;;;20.60;51.30;;;;;;6207558;28;20065;-73
2022/01/02 14:26:52;;;;;;;0.88;0.65;;;20.60;51.30;;;;;;6202330;28;20022;-74
2022/01/02 14:29:54;;;;;;;0.88;0.50;;;20.50;51.20;;;;;;6216133;28;20417;-73
2022/01/02 14:32:54;;;;;;;0.75;0.60;;;20.60;51.30;;;;;;6199753;28;20112;-74
2022/01/02 14:35:55;;;;;;;1.25;0.73;;;20.60;51.30;;;;;;6215694;28;20030;-72
2022/01/02 14:38:56;;;;;;;1.40;0.80;;;20.60;51.30;;;;;;6221240;28;20034;-75
2022/01/02 14:41:56;;;;;;;1.00;0.52;;;20.60;51.30;;;;;;6215467;28;20476;-73
2022/01/02 14:44:57;;;;;;;1.88;0.80;;;20.60;51.30;;;;;;6195251;28;20428;-72
2022/01/02 14:47:57;;;;;;;1.20;0.80;;;20.50;51.20;;;;;;6217086;28;20376;-73
2022/01/02 14:50:58;;;;;;;1.20;0.75;;;20.60;51.30;;;;;;6200330;28;20585;-73
2022/01/02 14:53:58;;;;;;;1.02;0.65;;;20.60;51.30;;;;;;6211426;28;20030;-72
2022/01/02 14:57:01;;;;;;;1.25;0.70;;;20.60;51.30;;;;;;6208719;28;20124;-75
2022/01/02 15:00:04;;;;;;;2.25;0.82;;;20.60;51.30;;;;;;6202624;28;20034;-73
2022/01/02 15:03:05;;;;;;;2.22;0.90;;;20.60;52.00;;;;;;6218169;28;20417;-74
2022/01/02 15:06:05;;;;;;;1.30;0.73;;;20.60;51.40;;;;;;6203497;28;20022;-74
2022/01/02 15:09:06;;;;;;;1.60;0.65;;;20.60;51.30;;;;;;6211219;28;20520;-72
2022/01/02 15:12:06;;;;;;;1.48;0.73;;;20.60;51.30;;;;;;6210613;28;20033;-74
2022/01/02 15:15:09;;;;;;;1.40;0.95;;;20.60;51.30;;;;;;6204262;28;20060;-72
2022/01/02 15:18:10;;;;;;;2.33;0.82;;;20.60;51.30;;;;;;6217910;28;20088;-73
2022/01/02 15:21:11;;;;;;;1.25;0.80;;;20.60;51.30;;;;;;6201498;28;20068;-73
2022/01/02 15:24:12;;;;;;;1.70;0.90;;;20.60;51.30;;;;;;6213038;28;20026;-73
2022/01/02 15:27:12;;;;;;;0.70;0.70;;;20.60;51.30;;;;;;6207960;28;20400;-72
2022/01/02 15:30:14;;;;;;;2.53;0.80;;;20.60;51.30;;;;;;6215239;28;20271;-74
2022/01/02 15:33:14;;;;;;;1.95;1.10;;;20.60;51.30;;;;;;6195759;28;20129;-72
2022/01/02 15:36:15;;;;;;;1.52;0.77;;;20.60;51.30;;;;;;6208530;28;20050;-72
2022/01/02 15:39:15;;;;;;;2.05;0.57;;;20.60;51.40;;;;;;6212187;28;20436;-72
2022/01/02 15:42:16;;;;;;;1.05;0.60;;;20.60;51.30;;;;;;6214039;28;20536;-73
2022/01/02 15:45:17;;;;;;;1.25;0.70;;;20.60;51.40;;;;;;6198528;28;20029;-73
2022/01/02 15:48:20;;;;;;;1.05;0.70;;;20.60;51.40;;;;;;6214121;28;20019;-73
2022/01/02 15:51:20;;;;;;;2.75;0.80;;;20.50;51.30;;;;;;6205495;28;20425;-73
2022/01/02 15:54:21;;;;;;;3.05;0.80;;;20.60;51.40;;;;;;6207068;28;20452;-73
2022/01/02 15:57:21;;;;;;;1.63;0.68;;;20.60;52.00;;;;;;6210307;28;20392;-73
2022/01/02 16:00:22;;;;;;;3.03;0.90;;;20.60;51.40;;;;;;6198114;28;20037;-73